Terminal Aerodrome Forecast
Issued by NWS

Home | Current Version | Previous Version | Text Only | Print | Product List | Glossary On
Versions: 1 2 3 4 5 6 7 8 9 10 11 12 13 14
000
FTUS44 KTSA 210537
TAFRVS
TAF
KRVS 210537Z 2106/2206 17012KT P6SM BKN018
      TEMPO 2106/2109 SCT018
     FM210900 18013G20KT P6SM BKN015
     FM211800 19015G24KT P6SM BKN025 BKN035
     FM220300 21011KT P6SM FEW120=

USA.gov is the U.S. government's official web portal to all federal, state and local government web resources and services.